sensor_id;sensor_type;location;lat;lon;timestamp;temperature;humidity
66928;DHT22;59882;45.624;11.698;2023-11-22T00:02:11;7.00;81.80
66928;DHT22;59882;45.624;11.698;2023-11-22T00:04:37;7.00;81.70
66928;DHT22;59882;45.624;11.698;2023-11-22T00:07:02;6.90;81.80
66928;DHT22;59882;45.624;11.698;2023-11-22T00:09:28;6.90;81.90
66928;DHT22;59882;45.624;11.698;2023-11-22T00:11:53;6.90;81.90
66928;DHT22;59882;45.624;11.698;2023-11-22T00:14:19;7.00;82.10
66928;DHT22;59882;45.624;11.698;2023-11-22T00:16:45;6.90;82.00
66928;DHT22;59882;45.624;11.698;2023-11-22T00:19:11;6.90;81.90
66928;DHT22;59882;45.624;11.698;2023-11-22T00:21:37;6.90;82.00
66928;DHT22;59882;45.624;11.698;2023-11-22T00:24:02;6.80;82.00
66928;DHT22;59882;45.624;11.698;2023-11-22T00:26:28;6.80;82.00
66928;DHT22;59882;45.624;11.698;2023-11-22T00:28:54;6.80;82.10
66928;DHT22;59882;45.624;11.698;2023-11-22T00:31:19;6.80;82.00
66928;DHT22;59882;45.624;11.698;2023-11-22T00:33:45;6.80;81.90
66928;DHT22;59882;45.624;11.698;2023-11-22T00:36:11;6.80;81.90
66928;DHT22;59882;45.624;11.698;2023-11-22T00:38:37;6.70;81.90
66928;DHT22;59882;45.624;11.698;2023-11-22T00:41:04;6.60;82.00
66928;DHT22;59882;45.624;11.698;2023-11-22T00:43:30;6.60;82.20
66928;DHT22;59882;45.624;11.698;2023-11-22T00:45:56;6.70;82.20
66928;DHT22;59882;45.624;11.698;2023-11-22T00:48:22;6.70;82.20
66928;DHT22;59882;45.624;11.698;2023-11-22T00:50:48;6.60;82.00
66928;DHT22;59882;45.624;11.698;2023-11-22T00:53:13;6.60;82.00
66928;DHT22;59882;45.624;11.698;2023-11-22T00:55:40;6.60;82.10
66928;DHT22;59882;45.624;11.698;2023-11-22T00:58:07;6.50;82.10
66928;DHT22;59882;45.624;11.698;2023-11-22T01:00:33;6.50;82.20
66928;DHT22;59882;45.624;11.698;2023-11-22T01:02:58;6.50;82.30
66928;DHT22;59882;45.624;11.698;2023-11-22T01:05:24;6.50;82.30
66928;DHT22;59882;45.624;11.698;2023-11-22T01:07:49;6.50;82.30
66928;DHT22;59882;45.624;11.698;2023-11-22T01:10:15;6.50;82.20
66928;DHT22;59882;45.624;11.698;2023-11-22T01:12:41;6.40;82.30
66928;DHT22;59882;45.624;11.698;2023-11-22T01:15:07;6.50;82.40
66928;DHT22;59882;45.624;11.698;2023-11-22T01:17:34;6.40;82.50
66928;DHT22;59882;45.624;11.698;2023-11-22T01:20:00;6.50;82.50
66928;DHT22;59882;45.624;11.698;2023-11-22T01:22:25;6.50;82.50
66928;DHT22;59882;45.624;11.698;2023-11-22T01:24:51;6.50;82.40
66928;DHT22;59882;45.624;11.698;2023-11-22T01:27:17;6.50;82.30
66928;DHT22;59882;45.624;11.698;2023-11-22T01:29:42;6.50;82.20
66928;DHT22;59882;45.624;11.698;2023-11-22T01:32:08;6.50;82.20
66928;DHT22;59882;45.624;11.698;2023-11-22T01:34:34;6.50;82.10
66928;DHT22;59882;45.624;11.698;2023-11-22T01:37:00;6.50;82.10
66928;DHT22;59882;45.624;11.698;2023-11-22T01:39:26;6.50;82.00
66928;DHT22;59882;45.624;11.698;2023-11-22T01:41:52;6.50;82.10
66928;DHT22;59882;45.624;11.698;2023-11-22T01:44:18;6.50;82.00
66928;DHT22;59882;45.624;11.698;2023-11-22T01:46:44;6.60;81.90
66928;DHT22;59882;45.624;11.698;2023-11-22T01:49:10;6.50;81.90
66928;DHT22;59882;45.624;11.698;2023-11-22T01:51:38;6.50;81.80
66928;DHT22;59882;45.624;11.698;2023-11-22T01:54:06;6.50;81.70
66928;DHT22;59882;45.624;11.698;2023-11-22T01:56:35;6.40;81.60
66928;DHT22;59882;45.624;11.698;2023-11-22T01:59:03;6.40;81.60
66928;DHT22;59882;45.624;11.698;2023-11-22T02:01:29;6.40;81.70
66928;DHT22;59882;45.624;11.698;2023-11-22T02:03:56;6.40;81.80
66928;DHT22;59882;45.624;11.698;2023-11-22T02:06:22;6.40;81.80
66928;DHT22;59882;45.624;11.698;2023-11-22T02:08:48;6.40;81.70
66928;DHT22;59882;45.624;11.698;2023-11-22T02:11:17;6.40;81.60
66928;DHT22;59882;45.624;11.698;2023-11-22T02:13:48;6.30;81.50
66928;DHT22;59882;45.624;11.698;2023-11-22T02:16:14;6.30;81.40
66928;DHT22;59882;45.624;11.698;2023-11-22T02:18:39;6.30;81.40
66928;DHT22;59882;45.624;11.698;2023-11-22T02:21:07;6.30;81.30
66928;DHT22;59882;45.624;11.698;2023-11-22T02:23:33;6.30;81.30
66928;DHT22;59882;45.624;11.698;2023-11-22T02:25:58;6.30;81.30
66928;DHT22;59882;45.624;11.698;2023-11-22T02:28:24;6.30;81.30
66928;DHT22;59882;45.624;11.698;2023-11-22T02:30:50;6.30;81.10
66928;DHT22;59882;45.624;11.698;2023-11-22T02:33:15;6.30;81.00
66928;DHT22;59882;45.624;11.698;2023-11-22T02:35:41;6.20;80.80
66928;DHT22;59882;45.624;11.698;2023-11-22T02:38:07;6.20;80.70
66928;DHT22;59882;45.624;11.698;2023-11-22T02:40:33;6.10;80.80
66928;DHT22;59882;45.624;11.698;2023-11-22T02:42:58;6.10;80.70
66928;DHT22;59882;45.624;11.698;2023-11-22T02:45:30;6.10;80.70
66928;DHT22;59882;45.624;11.698;2023-11-22T02:47:56;6.10;80.50
66928;DHT22;59882;45.624;11.698;2023-11-22T02:50:22;6.00;80.60
66928;DHT22;59882;45.624;11.698;2023-11-22T02:52:48;6.00;80.60
66928;DHT22;59882;45.624;11.698;2023-11-22T02:55:13;5.90;80.50
66928;DHT22;59882;45.624;11.698;2023-11-22T02:57:40;5.80;80.60
66928;DHT22;59882;45.624;11.698;2023-11-22T03:00:07;5.80;80.70
66928;DHT22;59882;45.624;11.698;2023-11-22T03:02:36;5.80;80.80
66928;DHT22;59882;45.624;11.698;2023-11-22T03:05:02;5.80;81.00
66928;DHT22;59882;45.624;11.698;2023-11-22T03:07:29;5.80;81.10
66928;DHT22;59882;45.624;11.698;2023-11-22T03:09:55;5.80;81.10
66928;DHT22;59882;45.624;11.698;2023-11-22T03:12:21;5.80;81.30
66928;DHT22;59882;45.624;11.698;2023-11-22T03:14:47;5.80;81.50
66928;DHT22;59882;45.624;11.698;2023-11-22T03:17:14;5.80;81.50
66928;DHT22;59882;45.624;11.698;2023-11-22T03:19:40;5.80;81.40
66928;DHT22;59882;45.624;11.698;2023-11-22T03:22:06;5.80;81.40
66928;DHT22;59882;45.624;11.698;2023-11-22T03:24:32;5.80;81.40
66928;DHT22;59882;45.624;11.698;2023-11-22T03:27:02;5.80;81.40
66928;DHT22;59882;45.624;11.698;2023-11-22T03:29:29;5.80;81.30
66928;DHT22;59882;45.624;11.698;2023-11-22T03:31:54;5.80;81.30
66928;DHT22;59882;45.624;11.698;2023-11-22T03:34:20;5.70;81.20
66928;DHT22;59882;45.624;11.698;2023-11-22T03:36:46;5.70;81.30
66928;DHT22;59882;45.624;11.698;2023-11-22T03:39:12;5.60;81.30
66928;DHT22;59882;45.624;11.698;2023-11-22T03:41:40;5.60;81.30
66928;DHT22;59882;45.624;11.698;2023-11-22T03:44:06;5.60;81.40
66928;DHT22;59882;45.624;11.698;2023-11-22T03:46:37;5.60;81.50
66928;DHT22;59882;45.624;11.698;2023-11-22T03:49:04;5.50;81.60
66928;DHT22;59882;45.624;11.698;2023-11-22T03:51:30;5.50;81.60
66928;DHT22;59882;45.624;11.698;2023-11-22T03:53:56;5.40;81.70
66928;DHT22;59882;45.624;11.698;2023-11-22T03:56:21;5.40;81.90
66928;DHT22;59882;45.624;11.698;2023-11-22T03:58:47;5.40;82.00
66928;DHT22;59882;45.624;11.698;2023-11-22T04:01:14;5.30;82.40
66928;DHT22;59882;45.624;11.698;2023-11-22T04:03:41;5.30;82.40
66928;DHT22;59882;45.624;11.698;2023-11-22T04:06:07;5.40;82.60
66928;DHT22;59882;45.624;11.698;2023-11-22T04:08:33;5.30;82.60
66928;DHT22;59882;45.624;11.698;2023-11-22T04:10:58;5.40;82.50
66928;DHT22;59882;45.624;11.698;2023-11-22T04:13:24;5.40;82.60
66928;DHT22;59882;45.624;11.698;2023-11-22T04:15:50;5.40;82.60
66928;DHT22;59882;45.624;11.698;2023-11-22T04:18:16;5.30;82.50
66928;DHT22;59882;45.624;11.698;2023-11-22T04:20:42;5.40;82.60
66928;DHT22;59882;45.624;11.698;2023-11-22T04:23:07;5.40;82.60
66928;DHT22;59882;45.624;11.698;2023-11-22T04:25:36;5.40;82.60
66928;DHT22;59882;45.624;11.698;2023-11-22T04:28:02;5.40;82.60
66928;DHT22;59882;45.624;11.698;2023-11-22T04:30:28;5.40;82.60
66928;DHT22;59882;45.624;11.698;2023-11-22T04:32:54;5.40;82.50
66928;DHT22;59882;45.624;11.698;2023-11-22T04:35:19;5.40;82.50
66928;DHT22;59882;45.624;11.698;2023-11-22T04:37:45;5.40;82.40
66928;DHT22;59882;45.624;11.698;2023-11-22T04:40:13;5.50;82.40
66928;DHT22;59882;45.624;11.698;2023-11-22T04:42:40;5.50;82.40
66928;DHT22;59882;45.624;11.698;2023-11-22T04:45:06;5.50;82.30
66928;DHT22;59882;45.624;11.698;2023-11-22T04:47:32;5.50;82.40
66928;DHT22;59882;45.624;11.698;2023-11-22T04:49:57;5.50;82.20
66928;DHT22;59882;45.624;11.698;2023-11-22T04:52:23;5.60;82.10
66928;DHT22;59882;45.624;11.698;2023-11-22T04:54:49;5.60;82.10
66928;DHT22;59882;45.624;11.698;2023-11-22T04:57:14;5.70;82.00
66928;DHT22;59882;45.624;11.698;2023-11-22T04:59:40;5.70;81.90
66928;DHT22;59882;45.624;11.698;2023-11-22T05:02:06;5.70;81.80
66928;DHT22;59882;45.624;11.698;2023-11-22T05:04:32;5.70;81.70
66928;DHT22;59882;45.624;11.698;2023-11-22T05:06:58;5.70;81.60
66928;DHT22;59882;45.624;11.698;2023-11-22T05:09:24;5.70;81.30
66928;DHT22;59882;45.624;11.698;2023-11-22T05:11:50;5.60;81.10
66928;DHT22;59882;45.624;11.698;2023-11-22T05:14:17;5.60;81.10
66928;DHT22;59882;45.624;11.698;2023-11-22T05:16:43;5.60;81.10
66928;DHT22;59882;45.624;11.698;2023-11-22T05:19:08;5.60;81.20
66928;DHT22;59882;45.624;11.698;2023-11-22T05:21:34;5.60;81.20
66928;DHT22;59882;45.624;11.698;2023-11-22T05:24:00;5.60;81.20
66928;DHT22;59882;45.624;11.698;2023-11-22T05:26:25;5.50;81.20
66928;DHT22;59882;45.624;11.698;2023-11-22T05:28:52;5.40;81.20
66928;DHT22;59882;45.624;11.698;2023-11-22T05:31:20;5.40;81.20
66928;DHT22;59882;45.624;11.698;2023-11-22T05:33:46;5.40;81.20
66928;DHT22;59882;45.624;11.698;2023-11-22T05:36:12;5.30;81.20
66928;DHT22;59882;45.624;11.698;2023-11-22T05:38:37;5.30;81.30
66928;DHT22;59882;45.624;11.698;2023-11-22T05:41:03;5.30;81.50
66928;DHT22;59882;45.624;11.698;2023-11-22T05:43:29;5.30;81.50
66928;DHT22;59882;45.624;11.698;2023-11-22T05:45:55;5.20;81.50
66928;DHT22;59882;45.624;11.698;2023-11-22T05:48:21;5.20;81.80
66928;DHT22;59882;45.624;11.698;2023-11-22T05:50:47;5.20;81.90
66928;DHT22;59882;45.624;11.698;2023-11-22T05:53:14;5.10;82.00
66928;DHT22;59882;45.624;11.698;2023-11-22T05:55:45;5.10;82.00
66928;DHT22;59882;45.624;11.698;2023-11-22T05:58:13;5.00;82.10
66928;DHT22;59882;45.624;11.698;2023-11-22T06:00:45;5.10;82.20
66928;DHT22;59882;45.624;11.698;2023-11-22T06:03:11;5.00;82.20
66928;DHT22;59882;45.624;11.698;2023-11-22T06:05:38;5.00;82.20
66928;DHT22;59882;45.624;11.698;2023-11-22T06:08:04;5.00;82.20
66928;DHT22;59882;45.624;11.698;2023-11-22T06:10:30;5.00;82.10
66928;DHT22;59882;45.624;11.698;2023-11-22T06:12:56;4.90;82.10
66928;DHT22;59882;45.624;11.698;2023-11-22T06:15:22;4.90;82.10
66928;DHT22;59882;45.624;11.698;2023-11-22T06:17:48;4.90;82.30
66928;DHT22;59882;45.624;11.698;2023-11-22T06:20:15;4.90;82.40
66928;DHT22;59882;45.624;11.698;2023-11-22T06:22:41;4.90;82.50
66928;DHT22;59882;45.624;11.698;2023-11-22T06:25:11;4.90;82.50
66928;DHT22;59882;45.624;11.698;2023-11-22T06:27:37;4.90;82.50
66928;DHT22;59882;45.624;11.698;2023-11-22T06:30:03;4.90;82.60
66928;DHT22;59882;45.624;11.698;2023-11-22T06:32:29;4.90;82.80
66928;DHT22;59882;45.624;11.698;2023-11-22T06:34:55;4.90;82.80
66928;DHT22;59882;45.624;11.698;2023-11-22T06:37:20;4.90;82.70
66928;DHT22;59882;45.624;11.698;2023-11-22T06:39:46;4.90;82.80
66928;DHT22;59882;45.624;11.698;2023-11-22T06:42:12;5.00;82.80
66928;DHT22;59882;45.624;11.698;2023-11-22T06:44:38;5.00;82.80
66928;DHT22;59882;45.624;11.698;2023-11-22T06:47:05;5.00;82.80
66928;DHT22;59882;45.624;11.698;2023-11-22T06:49:33;5.10;82.70
66928;DHT22;59882;45.624;11.698;2023-11-22T06:51:58;5.10;82.80
66928;DHT22;59882;45.624;11.698;2023-11-22T06:54:24;5.20;82.80
66928;DHT22;59882;45.624;11.698;2023-11-22T06:56:49;5.20;82.90
66928;DHT22;59882;45.624;11.698;2023-11-22T06:59:16;5.30;82.80
66928;DHT22;59882;45.624;11.698;2023-11-22T07:01:42;5.30;82.90
66928;DHT22;59882;45.624;11.698;2023-11-22T07:04:08;5.40;83.00
66928;DHT22;59882;45.624;11.698;2023-11-22T07:06:34;5.40;82.90
66928;DHT22;59882;45.624;11.698;2023-11-22T07:09:01;5.40;82.70
66928;DHT22;59882;45.624;11.698;2023-11-22T07:11:27;5.50;82.70
66928;DHT22;59882;45.624;11.698;2023-11-22T07:13:56;5.50;82.70
66928;DHT22;59882;45.624;11.698;2023-11-22T07:16:23;5.50;82.60
66928;DHT22;59882;45.624;11.698;2023-11-22T07:18:50;5.60;82.60
66928;DHT22;59882;45.624;11.698;2023-11-22T07:21:15;5.60;82.70
66928;DHT22;59882;45.624;11.698;2023-11-22T07:23:42;5.60;82.60
66928;DHT22;59882;45.624;11.698;2023-11-22T07:26:08;5.70;82.60
66928;DHT22;59882;45.624;11.698;2023-11-22T07:28:34;5.70;82.60
66928;DHT22;59882;45.624;11.698;2023-11-22T07:31:01;5.70;82.60
66928;DHT22;59882;45.624;11.698;2023-11-22T07:33:27;5.80;82.50
66928;DHT22;59882;45.624;11.698;2023-11-22T07:35:53;5.80;82.60
66928;DHT22;59882;45.624;11.698;2023-11-22T07:38:19;5.80;82.50
66928;DHT22;59882;45.624;11.698;2023-11-22T07:40:45;5.90;82.50
66928;DHT22;59882;45.624;11.698;2023-11-22T07:43:10;5.90;82.50
66928;DHT22;59882;45.624;11.698;2023-11-22T07:45:36;5.90;82.40
66928;DHT22;59882;45.624;11.698;2023-11-22T07:48:06;6.00;82.30
66928;DHT22;59882;45.624;11.698;2023-11-22T07:50:32;6.10;82.30
66928;DHT22;59882;45.624;11.698;2023-11-22T07:52:58;6.10;82.20
66928;DHT22;59882;45.624;11.698;2023-11-22T07:55:24;6.20;82.10
66928;DHT22;59882;45.624;11.698;2023-11-22T07:57:49;6.30;82.10
66928;DHT22;59882;45.624;11.698;2023-11-22T08:00:17;6.30;82.10
66928;DHT22;59882;45.624;11.698;2023-11-22T08:02:45;6.30;82.00
66928;DHT22;59882;45.624;11.698;2023-11-22T08:05:11;6.40;82.20
66928;DHT22;59882;45.624;11.698;2023-11-22T08:07:38;6.40;82.50
66928;DHT22;59882;45.624;11.698;2023-11-22T08:10:07;6.50;82.60
66928;DHT22;59882;45.624;11.698;2023-11-22T08:12:43;6.50;82.60
66928;DHT22;59882;45.624;11.698;2023-11-22T08:15:10;6.60;82.50
66928;DHT22;59882;45.624;11.698;2023-11-22T08:17:38;6.60;82.40
66928;DHT22;59882;45.624;11.698;2023-11-22T08:20:05;6.70;82.30
66928;DHT22;59882;45.624;11.698;2023-11-22T08:22:32;6.80;82.40
66928;DHT22;59882;45.624;11.698;2023-11-22T08:25:02;6.80;82.30
66928;DHT22;59882;45.624;11.698;2023-11-22T08:27:28;6.80;82.20
66928;DHT22;59882;45.624;11.698;2023-11-22T08:29:54;6.90;82.20
66928;DHT22;59882;45.624;11.698;2023-11-22T08:32:19;7.00;82.40
66928;DHT22;59882;45.624;11.698;2023-11-22T08:34:49;7.10;82.50
66928;DHT22;59882;45.624;11.698;2023-11-22T08:37:15;7.10;82.60
66928;DHT22;59882;45.624;11.698;2023-11-22T08:39:41;7.30;83.20
66928;DHT22;59882;45.624;11.698;2023-11-22T08:42:07;7.30;83.00
66928;DHT22;59882;45.624;11.698;2023-11-22T08:44:36;7.40;83.00
66928;DHT22;59882;45.624;11.698;2023-11-22T08:47:02;7.50;82.80
66928;DHT22;59882;45.624;11.698;2023-11-22T08:49:28;7.50;82.70
66928;DHT22;59882;45.624;11.698;2023-11-22T08:51:54;7.60;82.60
66928;DHT22;59882;45.624;11.698;2023-11-22T08:54:20;7.70;82.40
66928;DHT22;59882;45.624;11.698;2023-11-22T08:56:45;7.80;82.20
66928;DHT22;59882;45.624;11.698;2023-11-22T08:59:12;7.80;82.10
66928;DHT22;59882;45.624;11.698;2023-11-22T09:01:38;7.90;82.00
66928;DHT22;59882;45.624;11.698;2023-11-22T09:04:04;8.00;81.90
66928;DHT22;59882;45.624;11.698;2023-11-22T09:06:30;8.10;81.70
66928;DHT22;59882;45.624;11.698;2023-11-22T09:08:55;8.10;81.50
66928;DHT22;59882;45.624;11.698;2023-11-22T09:11:22;8.30;81.50
66928;DHT22;59882;45.624;11.698;2023-11-22T09:13:48;8.30;81.30
66928;DHT22;59882;45.624;11.698;2023-11-22T09:16:15;8.40;81.30
66928;DHT22;59882;45.624;11.698;2023-11-22T09:18:42;8.50;81.10
66928;DHT22;59882;45.624;11.698;2023-11-22T09:21:08;8.60;80.90
66928;DHT22;59882;45.624;11.698;2023-11-22T09:23:35;8.70;81.20
66928;DHT22;59882;45.624;11.698;2023-11-22T09:26:02;8.80;81.80
66928;DHT22;59882;45.624;11.698;2023-11-22T09:28:28;8.80;82.00
66928;DHT22;59882;45.624;11.698;2023-11-22T09:30:54;8.90;81.50
66928;DHT22;59882;45.624;11.698;2023-11-22T09:33:26;9.10;81.50
66928;DHT22;59882;45.624;11.698;2023-11-22T09:35:52;9.20;81.50
66928;DHT22;59882;45.624;11.698;2023-11-22T09:38:18;9.30;81.30
66928;DHT22;59882;45.624;11.698;2023-11-22T09:40:45;9.40;80.80
66928;DHT22;59882;45.624;11.698;2023-11-22T09:43:12;9.50;80.00
66928;DHT22;59882;45.624;11.698;2023-11-22T09:45:40;9.70;79.40
66928;DHT22;59882;45.624;11.698;2023-11-22T09:48:17;9.80;78.40
66928;DHT22;59882;45.624;11.698;2023-11-22T09:51:05;9.90;78.40
66928;DHT22;59882;45.624;11.698;2023-11-22T09:56:16;10.10;77.80
66928;DHT22;59882;45.624;11.698;2023-11-22T09:58:44;10.30;77.50
66928;DHT22;59882;45.624;11.698;2023-11-22T10:01:14;10.30;76.30
66928;DHT22;59882;45.624;11.698;2023-11-22T10:03:40;10.40;74.60
66928;DHT22;59882;45.624;11.698;2023-11-22T10:06:06;10.40;71.40
66928;DHT22;59882;45.624;11.698;2023-11-22T10:08:32;10.60;71.50
66928;DHT22;59882;45.624;11.698;2023-11-22T10:10:58;10.70;71.30
66928;DHT22;59882;45.624;11.698;2023-11-22T10:13:25;10.80;70.30
66928;DHT22;59882;45.624;11.698;2023-11-22T10:15:51;10.80;69.30
66928;DHT22;59882;45.624;11.698;2023-11-22T10:18:18;11.00;68.50
66928;DHT22;59882;45.624;11.698;2023-11-22T10:20:45;11.10;69.50
66928;DHT22;59882;45.624;11.698;2023-11-22T10:23:17;11.20;68.30
66928;DHT22;59882;45.624;11.698;2023-11-22T10:25:52;11.30;69.30
66928;DHT22;59882;45.624;11.698;2023-11-22T10:28:18;11.30;68.40
66928;DHT22;59882;45.624;11.698;2023-11-22T10:30:48;11.40;68.00
66928;DHT22;59882;45.624;11.698;2023-11-22T10:33:15;11.40;66.50
66928;DHT22;59882;45.624;11.698;2023-11-22T10:35:49;11.50;68.40
66928;DHT22;59882;45.624;11.698;2023-11-22T10:38:15;11.50;68.40
66928;DHT22;59882;45.624;11.698;2023-11-22T10:40:41;11.60;67.20
66928;DHT22;59882;45.624;11.698;2023-11-22T10:43:11;11.60;67.30
66928;DHT22;59882;45.624;11.698;2023-11-22T10:45:37;11.60;67.80
66928;DHT22;59882;45.624;11.698;2023-11-22T10:48:04;11.70;67.30
66928;DHT22;59882;45.624;11.698;2023-11-22T10:50:31;11.80;66.30
66928;DHT22;59882;45.624;11.698;2023-11-22T10:52:58;11.90;66.70
66928;DHT22;59882;45.624;11.698;2023-11-22T10:55:31;11.90;66.90
66928;DHT22;59882;45.624;11.698;2023-11-22T10:58:03;11.90;64.80
66928;DHT22;59882;45.624;11.698;2023-11-22T11:00:31;12.00;65.90
66928;DHT22;59882;45.624;11.698;2023-11-22T11:03:08;12.10;64.60
66928;DHT22;59882;45.624;11.698;2023-11-22T11:05:41;12.10;63.50
66928;DHT22;59882;45.624;11.698;2023-11-22T11:08:09;12.20;63.20
66928;DHT22;59882;45.624;11.698;2023-11-22T11:10:40;12.30;61.90
66928;DHT22;59882;45.624;11.698;2023-11-22T11:13:10;12.40;62.00
66928;DHT22;59882;45.624;11.698;2023-11-22T11:15:36;12.40;60.30
66928;DHT22;59882;45.624;11.698;2023-11-22T11:18:05;12.50;60.30
66928;DHT22;59882;45.624;11.698;2023-11-22T11:23:20;12.60;58.20
66928;DHT22;59882;45.624;11.698;2023-11-22T11:25:57;12.70;58.70
66928;DHT22;59882;45.624;11.698;2023-11-22T11:28:25;12.80;60.50
66928;DHT22;59882;45.624;11.698;2023-11-22T11:30:52;12.90;57.50
66928;DHT22;59882;45.624;11.698;2023-11-22T11:33:32;12.90;57.30
66928;DHT22;59882;45.624;11.698;2023-11-22T11:36:00;13.00;56.60
66928;DHT22;59882;45.624;11.698;2023-11-22T11:38:34;13.10;57.10
66928;DHT22;59882;45.624;11.698;2023-11-22T11:41:12;13.20;56.50
66928;DHT22;59882;45.624;11.698;2023-11-22T11:43:48;13.30;56.70
66928;DHT22;59882;45.624;11.698;2023-11-22T11:46:17;13.30;55.70
66928;DHT22;59882;45.624;11.698;2023-11-22T11:48:51;13.50;55.20
66928;DHT22;59882;45.624;11.698;2023-11-22T11:51:18;13.50;54.60
66928;DHT22;59882;45.624;11.698;2023-11-22T11:53:47;13.70;55.00
66928;DHT22;59882;45.624;11.698;2023-11-22T11:56:13;13.90;53.50
66928;DHT22;59882;45.624;11.698;2023-11-22T11:58:44;15.40;54.30
66928;DHT22;59882;45.624;11.698;2023-11-22T12:01:12;17.90;51.80
66928;DHT22;59882;45.624;11.698;2023-11-22T12:03:38;20.70;46.50
66928;DHT22;59882;45.624;11.698;2023-11-22T12:06:07;23.30;37.90
66928;DHT22;59882;45.624;11.698;2023-11-22T12:08:33;25.60;34.70
66928;DHT22;59882;45.624;11.698;2023-11-22T12:11:05;27.50;35.30
66928;DHT22;59882;45.624;11.698;2023-11-22T12:13:33;29.30;32.20
66928;DHT22;59882;45.624;11.698;2023-11-22T12:16:00;30.70;26.50
66928;DHT22;59882;45.624;11.698;2023-11-22T12:18:28;31.90;27.10
66928;DHT22;59882;45.624;11.698;2023-11-22T12:20:55;32.90;25.90
66928;DHT22;59882;45.624;11.698;2023-11-22T12:23:22;33.90;23.70
66928;DHT22;59882;45.624;11.698;2023-11-22T12:25:48;34.80;23.50
66928;DHT22;59882;45.624;11.698;2023-11-22T12:28:16;35.40;22.30
66928;DHT22;59882;45.624;11.698;2023-11-22T12:30:43;36.00;21.70
66928;DHT22;59882;45.624;11.698;2023-11-22T12:33:10;36.50;19.00
66928;DHT22;59882;45.624;11.698;2023-11-22T12:35:38;36.90;18.80
66928;DHT22;59882;45.624;11.698;2023-11-22T12:38:05;37.10;17.90
66928;DHT22;59882;45.624;11.698;2023-11-22T12:40:32;37.30;18.60
66928;DHT22;59882;45.624;11.698;2023-11-22T12:42:59;37.50;19.10
66928;DHT22;59882;45.624;11.698;2023-11-22T12:45:27;37.60;17.00
66928;DHT22;59882;45.624;11.698;2023-11-22T12:47:54;37.70;17.00
66928;DHT22;59882;45.624;11.698;2023-11-22T12:53:13;37.80;18.50
66928;DHT22;59882;45.624;11.698;2023-11-22T12:55:46;38.00;16.50
66928;DHT22;59882;45.624;11.698;2023-11-22T12:58:17;37.90;17.60
66928;DHT22;59882;45.624;11.698;2023-11-22T13:00:45;37.80;17.00
66928;DHT22;59882;45.624;11.698;2023-11-22T13:03:11;37.70;18.30
66928;DHT22;59882;45.624;11.698;2023-11-22T13:05:40;37.50;16.80
66928;DHT22;59882;45.624;11.698;2023-11-22T13:08:10;37.40;16.80
66928;DHT22;59882;45.624;11.698;2023-11-22T13:10:59;37.20;16.60
66928;DHT22;59882;45.624;11.698;2023-11-22T13:13:25;36.70;16.40
66928;DHT22;59882;45.624;11.698;2023-11-22T13:15:52;36.30;17.50
66928;DHT22;59882;45.624;11.698;2023-11-22T13:18:18;36.00;16.70
66928;DHT22;59882;45.624;11.698;2023-11-22T13:20:45;35.40;18.90
66928;DHT22;59882;45.624;11.698;2023-11-22T13:23:11;34.80;19.00
66928;DHT22;59882;45.624;11.698;2023-11-22T13:25:37;34.10;19.80
66928;DHT22;59882;45.624;11.698;2023-11-22T13:28:03;33.50;20.10
66928;DHT22;59882;45.624;11.698;2023-11-22T13:30:31;32.70;19.80
66928;DHT22;59882;45.624;11.698;2023-11-22T13:32:57;31.90;21.40
66928;DHT22;59882;45.624;11.698;2023-11-22T13:35:24;31.00;22.20
66928;DHT22;59882;45.624;11.698;2023-11-22T13:37:49;30.20;23.30
66928;DHT22;59882;45.624;11.698;2023-11-22T13:40:19;29.50;23.20
66928;DHT22;59882;45.624;11.698;2023-11-22T13:42:50;28.90;24.20
66928;DHT22;59882;45.624;11.698;2023-11-22T13:45:18;28.30;24.90
66928;DHT22;59882;45.624;11.698;2023-11-22T13:47:46;27.90;25.60
66928;DHT22;59882;45.624;11.698;2023-11-22T13:50:16;27.50;25.80
66928;DHT22;59882;45.624;11.698;2023-11-22T13:52:50;27.30;26.20
66928;DHT22;59882;45.624;11.698;2023-11-22T13:55:17;27.00;26.00
66928;DHT22;59882;45.624;11.698;2023-11-22T13:57:51;26.40;26.40
66928;DHT22;59882;45.624;11.698;2023-11-22T14:00:22;25.50;27.40
66928;DHT22;59882;45.624;11.698;2023-11-22T14:02:53;24.60;28.10
66928;DHT22;59882;45.624;11.698;2023-11-22T14:05:25;23.70;29.00
66928;DHT22;59882;45.624;11.698;2023-11-22T14:07:51;22.90;30.20
66928;DHT22;59882;45.624;11.698;2023-11-22T14:10:17;22.20;31.30
66928;DHT22;59882;45.624;11.698;2023-11-22T14:12:44;21.50;32.00
66928;DHT22;59882;45.624;11.698;2023-11-22T14:15:10;20.90;32.80
66928;DHT22;59882;45.624;11.698;2023-11-22T14:17:36;20.30;33.70
66928;DHT22;59882;45.624;11.698;2023-11-22T14:20:05;19.80;33.70
66928;DHT22;59882;45.624;11.698;2023-11-22T14:22:32;19.40;34.60
66928;DHT22;59882;45.624;11.698;2023-11-22T14:24:58;19.10;35.50
66928;DHT22;59882;45.624;11.698;2023-11-22T14:27:23;18.70;36.20
66928;DHT22;59882;45.624;11.698;2023-11-22T14:29:49;18.40;36.80
66928;DHT22;59882;45.624;11.698;2023-11-22T14:32:16;18.10;37.40
66928;DHT22;59882;45.624;11.698;2023-11-22T14:34:42;17.80;37.60
66928;DHT22;59882;45.624;11.698;2023-11-22T14:37:12;17.60;38.30
66928;DHT22;59882;45.624;11.698;2023-11-22T14:39:38;17.40;39.10
66928;DHT22;59882;45.624;11.698;2023-11-22T14:42:05;17.30;39.70
66928;DHT22;59882;45.624;11.698;2023-11-22T14:44:36;17.00;40.10
66928;DHT22;59882;45.624;11.698;2023-11-22T14:47:03;16.90;40.40
66928;DHT22;59882;45.624;11.698;2023-11-22T14:49:39;16.70;40.50
66928;DHT22;59882;45.624;11.698;2023-11-22T14:52:04;16.50;41.10
66928;DHT22;59882;45.624;11.698;2023-11-22T14:54:30;16.40;41.70
66928;DHT22;59882;45.624;11.698;2023-11-22T14:56:55;16.30;42.50
66928;DHT22;59882;45.624;11.698;2023-11-22T14:59:26;16.10;42.90
66928;DHT22;59882;45.624;11.698;2023-11-22T15:01:52;16.00;43.50
66928;DHT22;59882;45.624;11.698;2023-11-22T15:04:18;15.90;44.10
66928;DHT22;59882;45.624;11.698;2023-11-22T15:06:44;15.80;44.80
66928;DHT22;59882;45.624;11.698;2023-11-22T15:09:10;15.60;45.40
66928;DHT22;59882;45.624;11.698;2023-11-22T15:11:41;15.50;45.80
66928;DHT22;59882;45.624;11.698;2023-11-22T15:14:06;15.40;46.50
66928;DHT22;59882;45.624;11.698;2023-11-22T15:16:32;15.20;47.10
66928;DHT22;59882;45.624;11.698;2023-11-22T15:18:58;15.10;47.10
66928;DHT22;59882;45.624;11.698;2023-11-22T15:21:28;15.00;47.50
66928;DHT22;59882;45.624;11.698;2023-11-22T15:23:53;14.90;48.20
66928;DHT22;59882;45.624;11.698;2023-11-22T15:26:24;14.80;48.50
66928;DHT22;59882;45.624;11.698;2023-11-22T15:28:50;14.70;49.10
66928;DHT22;59882;45.624;11.698;2023-11-22T15:31:16;14.60;49.60
66928;DHT22;59882;45.624;11.698;2023-11-22T15:33:42;14.50;49.90